createdAt,value
2018-07-09T00:00:59.977Z,152.80
2018-07-09T00:03:28.497Z,160.27
2018-07-09T00:05:57.011Z,170.47
2018-07-09T00:08:25.191Z,158.27
2018-07-09T00:11:08.128Z,160.53
2018-07-09T00:13:38.804Z,147.40
2018-07-09T00:16:07.340Z,153.40
2018-07-09T00:18:35.896Z,165.33
2018-07-09T00:21:04.453Z,175.50
2018-07-09T00:23:32.954Z,169.37
2018-07-09T00:26:01.501Z,169.03
2018-07-09T00:28:30.036Z,170.23
2018-07-09T00:30:58.590Z,181.13
2018-07-09T00:33:27.154Z,181.10
2018-07-09T00:35:55.705Z,161.73
2018-07-09T00:38:24.241Z,151.83
2018-07-09T00:40:52.860Z,154.77
2018-07-09T00:43:21.423Z,152.63
2018-07-09T00:45:49.663Z,170.40
2018-07-09T00:48:18.564Z,152.77
2018-07-09T00:50:47.129Z,148.93
2018-07-09T00:53:15.741Z,116.40
2018-07-09T00:55:44.276Z,141.53
2018-07-09T00:58:12.816Z,129.70
2018-07-09T01:00:41.320Z,139.33
2018-07-09T01:03:09.575Z,124.10
2018-07-09T01:05:38.118Z,127.57
2018-07-09T01:08:06.712Z,125.50
2018-07-09T01:10:45.188Z,147.00
2018-07-09T01:13:13.733Z,176.80
2018-07-09T01:15:42.273Z,222.93
2018-07-09T01:18:10.807Z,254.83
2018-07-09T01:20:39.441Z,295.07
2018-07-09T01:23:08.223Z,304.57
2018-07-09T01:25:36.759Z,335.20
2018-07-09T01:28:05.496Z,374.73
2018-07-09T01:30:36.569Z,364.90
2018-07-09T01:33:05.083Z,353.73
2018-07-09T01:35:34.304Z,363.67
2018-07-09T01:38:02.541Z,365.33
2018-07-09T01:40:31.084Z,344.83
2018-07-09T01:42:59.792Z,378.37
2018-07-09T01:45:28.335Z,390.27
2018-07-09T01:47:56.837Z,361.50
2018-07-09T01:50:25.376Z,367.17
2018-07-09T01:52:53.905Z,398.17
2018-07-09T01:55:22.413Z,385.40
2018-07-09T01:57:50.949Z,393.20
2018-07-09T02:00:19.178Z,397.57
2018-07-09T02:02:47.692Z,393.13
2018-07-09T02:05:16.204Z,427.00
2018-07-09T02:07:44.741Z,407.27
2018-07-09T02:10:13.293Z,389.87
2018-07-09T02:12:41.822Z,376.63
2018-07-09T02:15:10.322Z,413.03
2018-07-09T02:17:38.861Z,411.33
2018-07-09T02:20:07.649Z,389.43
2018-07-09T02:22:36.168Z,382.47
2018-07-09T02:25:04.912Z,375.07
2018-07-09T02:27:33.488Z,369.47
2018-07-09T02:30:02.025Z,369.67
2018-07-09T02:32:30.240Z,370.60
2018-07-09T02:34:58.801Z,372.13
2018-07-09T02:37:27.312Z,365.33
2018-07-09T02:39:55.860Z,374.47
2018-07-09T02:42:24.083Z,367.10
2018-07-09T02:44:52.781Z,472.70
2018-07-09T02:47:21.374Z,483.90
2018-07-09T02:49:49.931Z,474.43
2018-07-09T02:52:18.493Z,461.87
2018-07-09T02:54:47.064Z,457.40
2018-07-09T02:57:15.568Z,477.60
2018-07-09T02:59:44.101Z,450.73
2018-07-09T03:02:12.592Z,482.77
2018-07-09T03:04:41.151Z,484.37
2018-07-09T03:07:09.687Z,458.77
2018-07-09T03:09:38.172Z,435.53
2018-07-09T03:12:07.033Z,439.70
2018-07-09T03:14:35.592Z,475.27
2018-07-09T03:17:04.076Z,496.17
2018-07-09T03:19:32.612Z,496.97
2018-07-09T03:22:01.114Z,470.83
2018-07-09T03:24:29.629Z,469.80
2018-07-09T03:26:58.104Z,475.70
2018-07-09T03:29:26.632Z,474.20
2018-07-09T03:31:55.136Z,490.53
2018-07-09T03:34:23.611Z,480.03
2018-07-09T03:36:52.356Z,484.27
2018-07-09T03:39:20.874Z,481.83
2018-07-09T03:41:49.630Z,484.70
2018-07-09T03:44:18.173Z,490.80
2018-07-09T03:46:46.717Z,514.57
2018-07-09T03:49:15.108Z,512.87
2018-07-09T03:51:43.621Z,515.93
2018-07-09T03:54:12.136Z,519.13
2018-07-09T03:56:40.872Z,506.30
2018-07-09T03:59:09.394Z,505.03
2018-07-09T04:01:37.867Z,538.00
2018-07-09T04:04:06.417Z,541.57
2018-07-09T04:06:34.970Z,522.30
2018-07-09T04:09:03.267Z,505.87
2018-07-09T04:11:31.784Z,481.63
2018-07-09T04:14:00.308Z,527.63
2018-07-09T04:16:28.801Z,536.73
2018-07-09T04:18:57.020Z,563.77
2018-07-09T04:21:25.573Z,586.30
2018-07-09T04:23:53.790Z,565.30
2018-07-09T04:26:22.299Z,565.47
2018-07-09T04:28:51.375Z,547.57
2018-07-09T04:31:19.916Z,558.10
2018-07-09T04:33:48.789Z,563.60
2018-07-09T04:36:17.382Z,566.93
2018-07-09T04:38:45.900Z,574.47
2018-07-09T04:41:14.385Z,553.87
2018-07-09T04:43:42.940Z,541.93
2018-07-09T04:46:11.431Z,522.77
2018-07-09T04:48:39.952Z,540.53
2018-07-09T04:51:08.536Z,540.23
2018-07-09T04:53:37.095Z,547.90
2018-07-09T04:56:05.668Z,541.67
2018-07-09T04:58:34.187Z,532.77
2018-07-09T05:01:02.712Z,500.87
2018-07-09T05:03:30.962Z,524.07
2018-07-09T05:05:59.465Z,529.73
2018-07-09T05:08:27.695Z,551.27
2018-07-09T05:10:56.210Z,559.47
2018-07-09T05:13:24.744Z,554.47
2018-07-09T05:15:53.249Z,539.07
2018-07-09T05:18:21.820Z,596.53
2018-07-09T05:20:50.332Z,606.90
2018-07-09T05:23:19.073Z,607.50
2018-07-09T05:25:47.567Z,638.27
2018-07-09T05:28:16.092Z,652.33
2018-07-09T05:30:44.642Z,631.87
2018-07-09T05:33:13.134Z,625.80
2018-07-09T05:35:41.689Z,661.70
2018-07-09T05:38:10.177Z,649.80
2018-07-09T05:40:38.777Z,649.83
2018-07-09T05:43:07.427Z,657.10
2018-07-09T05:45:36.067Z,650.93
2018-07-09T05:48:05.896Z,666.33
2018-07-09T05:50:34.449Z,655.17
2018-07-09T05:53:03.165Z,618.10
2018-07-09T05:55:31.693Z,585.30
2018-07-09T05:58:00.187Z,526.70
2018-07-09T06:00:28.772Z,528.07
2018-07-09T06:02:57.371Z,543.00
2018-07-09T06:05:25.959Z,521.80
2018-07-09T06:07:54.516Z,507.43
2018-07-09T06:10:23.084Z,476.67
2018-07-09T06:12:51.681Z,347.47
2018-07-09T06:15:20.234Z,293.00
2018-07-09T06:17:49.189Z,267.17
2018-07-09T06:20:17.716Z,233.47
2018-07-09T06:22:46.265Z,186.37
2018-07-09T06:25:14.903Z,161.20
2018-07-09T06:27:43.534Z,140.70
2018-07-09T06:30:12.129Z,134.07
2018-07-09T06:32:40.653Z,136.23
2018-07-09T06:35:09.220Z,135.53
2018-07-09T06:37:37.912Z,133.97
2018-07-09T06:40:06.548Z,134.93
2018-07-09T06:42:35.236Z,115.07
2018-07-09T06:45:03.957Z,106.87
2018-07-09T06:47:32.457Z,144.77
2018-07-09T06:50:01.038Z,120.33
2018-07-09T06:52:29.573Z,110.27
2018-07-09T06:54:58.261Z,109.87
2018-07-09T06:57:26.820Z,123.03
2018-07-09T06:59:55.357Z,127.97
2018-07-09T07:02:23.902Z,132.17
2018-07-09T07:04:52.451Z,141.93
2018-07-09T07:07:20.949Z,199.47
2018-07-09T07:09:49.581Z,199.33
2018-07-09T07:12:18.157Z,206.23
2018-07-09T07:14:46.732Z,246.37
2018-07-09T07:17:15.208Z,221.33
2018-07-09T07:19:43.738Z,229.70
2018-07-09T07:22:12.344Z,219.53
2018-07-09T07:24:40.892Z,234.77
2018-07-09T07:27:09.444Z,253.07
2018-07-09T07:29:38.020Z,169.40
2018-07-09T07:32:06.602Z,163.40
2018-07-09T07:34:35.181Z,158.30
2018-07-09T07:37:03.708Z,150.43
2018-07-09T07:39:32.364Z,129.67
2018-07-09T07:42:00.873Z,138.23
2018-07-09T07:44:29.418Z,154.33
2018-07-09T07:46:57.905Z,152.77
2018-07-09T07:49:26.464Z,176.40
2018-07-09T07:51:55.549Z,191.47
2018-07-09T07:54:24.073Z,190.73
2018-07-09T07:56:52.621Z,162.97
2018-07-09T07:59:21.153Z,188.67
2018-07-09T08:01:49.657Z,220.03
2018-07-09T08:04:18.241Z,209.73
2018-07-09T08:06:46.759Z,219.53
2018-07-09T08:09:15.348Z,180.43
2018-07-09T08:11:51.361Z,213.10
2018-07-09T08:14:12.461Z,228.43
2018-07-09T08:16:40.961Z,245.03
2018-07-09T08:19:09.201Z,326.13
2018-07-09T08:21:37.917Z,351.37
2018-07-09T08:24:06.447Z,369.30
2018-07-09T08:26:34.997Z,355.63
2018-07-09T08:29:03.564Z,283.60
2018-07-09T08:31:32.229Z,277.13
2018-07-09T08:34:00.925Z,157.47
2018-07-09T08:36:29.536Z,109.80
2018-07-09T08:38:57.719Z,78.10
2018-07-09T08:41:26.389Z,79.10
2018-07-09T08:43:54.936Z,52.87
2018-07-09T08:46:23.496Z,44.83
2018-07-09T08:48:52.109Z,58.10
2018-07-09T08:51:20.831Z,37.30
2018-07-09T08:53:49.340Z,35.00
2018-07-09T08:56:17.903Z,29.17
2018-07-09T08:58:46.396Z,54.00
2018-07-09T09:01:14.920Z,70.23
2018-07-09T09:03:43.425Z,89.67
2018-07-09T09:06:11.936Z,74.80
2018-07-09T09:08:40.149Z,53.80
2018-07-09T09:11:08.740Z,40.13
2018-07-09T09:13:37.218Z,51.70
2018-07-09T09:16:05.793Z,32.83
2018-07-09T09:18:34.326Z,36.07
2018-07-09T09:21:02.816Z,31.83
2018-07-09T09:23:31.340Z,30.00
2018-07-09T09:25:59.826Z,32.97
2018-07-09T09:28:28.406Z,30.93
2018-07-09T09:30:56.900Z,31.47
2018-07-09T09:33:25.424Z,35.30
2018-07-09T09:35:53.977Z,33.00
2018-07-09T09:38:22.496Z,31.63
2018-07-09T09:40:50.990Z,32.07
2018-07-09T09:43:19.515Z,28.07
2018-07-09T09:45:48.033Z,28.83
2018-07-09T09:48:17.501Z,35.70
2018-07-09T09:50:48.116Z,36.03
2018-07-09T09:53:21.862Z,32.97
2018-07-09T09:55:57.401Z,37.43
2018-07-09T09:58:30.238Z,38.07
2018-07-09T10:01:07.285Z,39.60
2018-07-09T10:03:43.213Z,34.87
2018-07-09T10:06:16.033Z,33.43
2018-07-09T10:08:50.957Z,33.53
2018-07-09T10:11:27.176Z,25.33
2018-07-09T10:14:05.086Z,28.03
2018-07-09T10:16:40.042Z,29.10
2018-07-09T10:19:18.893Z,30.67
2018-07-09T10:21:55.720Z,38.60
2018-07-09T10:24:32.854Z,38.60
2018-07-09T10:27:04.988Z,45.23
2018-07-09T10:29:39.019Z,46.93
2018-07-09T10:32:12.876Z,48.83
2018-07-09T10:34:48.637Z,53.90
2018-07-09T10:37:25.175Z,54.43
2018-07-09T10:42:43.796Z,60.67
2018-07-09T10:48:01.065Z,136.03
2018-07-09T10:50:39.678Z,158.73
2018-07-09T10:53:13.513Z,176.93
2018-07-09T10:55:45.982Z,163.07
2018-07-09T10:58:25.560Z,206.50
2018-07-09T11:01:04.753Z,124.23
2018-07-09T11:03:37.492Z,118.17
2018-07-09T11:06:09.938Z,55.20
2018-07-09T11:08:46.997Z,60.80
2018-07-09T11:11:20.199Z,74.33
2018-07-09T11:13:50.810Z,52.67
2018-07-09T11:16:19.676Z,43.87
2018-07-09T11:18:48.556Z,56.47
2018-07-09T11:21:17.260Z,103.47
2018-07-09T11:23:45.801Z,86.87
2018-07-09T11:26:14.348Z,107.27
2018-07-09T11:28:43.173Z,98.10
2018-07-09T11:31:11.668Z,74.80
2018-07-09T11:33:40.212Z,70.73
2018-07-09T11:36:08.705Z,64.57
2018-07-09T11:38:36.956Z,57.27
2018-07-09T11:41:05.594Z,46.20
2018-07-09T11:43:34.103Z,58.90
2018-07-09T11:46:02.651Z,86.40
2018-07-09T11:48:31.253Z,97.33
2018-07-09T11:50:59.769Z,73.80
2018-07-09T11:53:28.353Z,72.97
2018-07-09T11:55:56.944Z,65.90
2018-07-09T11:58:25.581Z,66.37
2018-07-09T12:00:54.709Z,68.07
2018-07-09T12:03:23.699Z,58.50
2018-07-09T12:05:52.420Z,71.20
2018-07-09T12:08:21.671Z,110.87
2018-07-09T12:10:50.446Z,142.83
2018-07-09T12:13:19.379Z,110.47
2018-07-09T12:15:48.055Z,122.03
2018-07-09T12:18:16.804Z,152.70
2018-07-09T12:20:46.599Z,181.80
2018-07-09T12:23:16.002Z,153.53
2018-07-09T12:25:45.741Z,145.90
2018-07-09T12:28:14.465Z,126.00
2018-07-09T12:30:43.456Z,99.57
2018-07-09T12:33:12.576Z,124.10
2018-07-09T12:35:41.100Z,97.20
2018-07-09T12:38:09.922Z,94.97
2018-07-09T12:40:38.646Z,115.77
2018-07-09T12:43:08.032Z,118.07
2018-07-09T12:45:36.649Z,121.73
2018-07-09T12:48:05.489Z,117.73
2018-07-09T12:50:34.082Z,70.63
2018-07-09T12:53:02.622Z,57.47
2018-07-09T12:55:31.156Z,52.13
2018-07-09T12:58:00.382Z,56.47
2018-07-09T13:00:29.796Z,65.83
2018-07-09T13:02:59.492Z,61.30
2018-07-09T13:05:28.354Z,66.17
2018-07-09T13:07:57.608Z,63.13
2018-07-09T13:10:27.064Z,64.50
2018-07-09T13:12:55.603Z,72.17
2018-07-09T13:15:24.528Z,97.20
2018-07-09T13:17:53.226Z,108.90
2018-07-09T13:20:22.332Z,159.30
2018-07-09T13:22:51.115Z,200.70
2018-07-09T13:25:20.233Z,211.37
2018-07-09T13:27:49.563Z,263.13
2018-07-09T13:30:18.384Z,252.97
2018-07-09T13:32:46.968Z,242.40
2018-07-09T13:35:15.768Z,235.83
2018-07-09T13:37:44.344Z,253.07
2018-07-09T13:40:12.913Z,227.03
2018-07-09T13:42:41.461Z,259.03
2018-07-09T13:45:10.094Z,198.63
2018-07-09T13:47:39.685Z,202.00
2018-07-09T13:50:08.253Z,127.07
2018-07-09T13:52:36.852Z,98.13
2018-07-09T13:55:05.826Z,112.47
2018-07-09T13:57:35.189Z,68.43
2018-07-09T14:00:03.874Z,78.97
2018-07-09T14:02:32.861Z,98.10
2018-07-09T14:05:01.669Z,111.67
2018-07-09T14:07:30.213Z,111.07
2018-07-09T14:09:59.220Z,135.33
2018-07-09T14:12:28.692Z,239.73
2018-07-09T14:14:58.360Z,219.63
2018-07-09T14:17:27.840Z,255.33
2018-07-09T14:20:18.296Z,228.43
2018-07-09T14:22:47.483Z,276.60
2018-07-09T14:25:16.336Z,333.77
2018-07-09T14:27:44.888Z,333.17
2018-07-09T14:30:13.553Z,249.57
2018-07-09T14:32:42.564Z,337.07
2018-07-09T14:35:11.324Z,306.10
2018-07-09T14:37:39.680Z,276.33
2018-07-09T14:40:09.142Z,263.97
2018-07-09T14:42:37.790Z,289.80
2018-07-09T14:45:06.454Z,309.10
2018-07-09T14:47:35.289Z,285.93
2018-07-09T14:50:04.026Z,295.97
2018-07-09T14:52:32.600Z,294.17
2018-07-09T14:55:03.985Z,270.63
2018-07-09T14:57:33.085Z,265.77
2018-07-09T15:00:01.705Z,313.33
2018-07-09T15:02:30.224Z,294.40
2018-07-09T15:05:01.098Z,340.90
2018-07-09T15:07:29.709Z,301.63
2018-07-09T15:10:01.051Z,275.33
2018-07-09T15:12:29.789Z,277.67
2018-07-09T15:15:00.536Z,256.87
2018-07-09T15:17:29.138Z,178.77
2018-07-09T15:19:57.366Z,155.53
2018-07-09T15:22:28.457Z,137.83
2018-07-09T15:24:59.992Z,129.33
2018-07-09T15:27:28.680Z,100.57
2018-07-09T15:29:57.175Z,103.37
2018-07-09T15:32:27.751Z,94.60
2018-07-09T15:34:56.470Z,105.40
2018-07-09T15:37:25.232Z,110.97
2018-07-09T15:39:54.571Z,121.97
2018-07-09T15:42:28.373Z,96.63
2018-07-09T15:45:01.344Z,101.47
2018-07-09T15:47:32.696Z,108.97
2018-07-09T15:50:02.314Z,100.23
2018-07-09T15:52:33.443Z,158.50
2018-07-09T15:55:04.825Z,126.77
2018-07-09T15:57:36.271Z,151.87
2018-07-09T16:00:06.157Z,181.07
2018-07-09T16:02:36.800Z,217.17
2018-07-09T16:05:07.782Z,273.53
2018-07-09T16:07:40.404Z,300.87
2018-07-09T16:10:10.408Z,314.03
2018-07-09T16:12:41.317Z,311.03
2018-07-09T16:15:11.682Z,327.23
2018-07-09T16:17:42.469Z,314.60
2018-07-09T16:20:10.725Z,267.63
2018-07-09T16:22:39.850Z,282.83
2018-07-09T16:25:09.196Z,295.13
2018-07-09T16:27:37.732Z,221.47
2018-07-09T16:30:06.297Z,161.43
2018-07-09T16:32:34.802Z,203.67
2018-07-09T16:35:03.369Z,246.67
2018-07-09T16:37:31.883Z,184.40
2018-07-09T16:40:00.725Z,229.30
2018-07-09T16:42:29.389Z,184.97
2018-07-09T16:44:57.853Z,126.33
2018-07-09T16:47:26.403Z,142.17
2018-07-09T16:49:54.626Z,142.43
2018-07-09T16:52:23.156Z,174.73
2018-07-09T16:54:51.717Z,257.27
2018-07-09T16:57:20.292Z,305.67
2018-07-09T16:59:48.829Z,342.97
2018-07-09T17:02:17.328Z,383.13
2018-07-09T17:04:45.863Z,370.77
2018-07-09T17:07:14.423Z,371.53
2018-07-09T17:09:43.093Z,354.23
2018-07-09T17:12:11.574Z,372.03
2018-07-09T17:14:40.129Z,368.10
2018-07-09T17:17:08.377Z,391.37
2018-07-09T17:19:36.969Z,384.20
2018-07-09T17:22:05.506Z,369.40
2018-07-09T17:24:34.040Z,360.37
2018-07-09T17:27:02.819Z,351.30
2018-07-09T17:29:31.221Z,227.97
2018-07-09T17:31:59.845Z,153.53
2018-07-09T17:34:28.415Z,140.47
2018-07-09T17:36:56.955Z,75.90
2018-07-09T17:39:26.951Z,67.60
2018-07-09T17:41:55.540Z,82.07
2018-07-09T17:44:24.713Z,90.60
2018-07-09T17:46:53.238Z,69.03
2018-07-09T17:49:21.818Z,71.87
2018-07-09T17:51:50.324Z,77.40
2018-07-09T17:54:19.440Z,69.27
2018-07-09T17:56:48.196Z,63.80
2018-07-09T17:59:16.776Z,74.93
2018-07-09T18:01:45.291Z,71.37
2018-07-09T18:04:13.850Z,84.53
2018-07-09T18:06:42.073Z,87.17
2018-07-09T18:09:10.584Z,44.90
2018-07-09T18:11:39.073Z,63.40
2018-07-09T18:14:07.897Z,82.50
2018-07-09T18:16:36.382Z,86.20
2018-07-09T18:19:04.942Z,102.60
2018-07-09T18:21:33.456Z,141.77
2018-07-09T18:24:02.087Z,179.90
2018-07-09T18:26:30.687Z,243.80
2018-07-09T18:29:01.787Z,334.77
2018-07-09T18:31:30.975Z,381.93
2018-07-09T18:34:01.576Z,374.40
2018-07-09T18:36:30.231Z,365.03
2018-07-09T18:38:58.765Z,376.87
2018-07-09T18:41:27.298Z,383.13
2018-07-09T18:43:55.840Z,382.87
2018-07-09T18:46:24.410Z,384.80
2018-07-09T18:48:55.979Z,366.00
2018-07-09T18:51:24.610Z,294.37
2018-07-09T18:53:53.157Z,237.47
2018-07-09T18:56:21.727Z,227.50
2018-07-09T18:58:50.827Z,222.83
2018-07-09T19:01:19.339Z,198.07
2018-07-09T19:03:47.909Z,167.37
2018-07-09T19:06:55.750Z,175.27
2018-07-09T19:09:25.027Z,174.83
2018-07-09T19:11:53.877Z,156.00
2018-07-09T19:14:28.782Z,126.87
2018-07-09T19:18:13.766Z,129.73
2018-07-09T19:21:55.570Z,150.23
2018-07-09T19:24:22.998Z,181.57
2018-07-09T19:26:50.395Z,127.90
2018-07-09T19:29:17.817Z,147.67
2018-07-09T19:31:45.238Z,132.90
2018-07-09T19:34:12.636Z,119.43
2018-07-09T19:36:40.149Z,117.77
2018-07-09T19:39:08.369Z,109.00
2018-07-09T19:41:35.855Z,116.80
2018-07-09T19:44:03.238Z,107.20
2018-07-09T19:46:30.659Z,104.53
2018-07-09T19:48:58.077Z,109.23
2018-07-09T19:51:25.624Z,120.70
2018-07-09T19:53:53.058Z,103.93
2018-07-09T19:56:20.462Z,79.47
2018-07-09T19:58:47.885Z,77.43
2018-07-09T20:01:15.288Z,50.60
2018-07-09T20:03:42.759Z,60.63
2018-07-09T20:06:10.407Z,97.90
2018-07-09T20:08:43.317Z,130.67
2018-07-09T20:11:15.900Z,133.13
2018-07-09T20:13:50.818Z,113.63
2018-07-09T20:16:23.625Z,143.50
2018-07-09T20:18:52.547Z,117.90
2018-07-09T20:21:19.983Z,180.93
2018-07-09T20:23:47.572Z,124.43
2018-07-09T20:26:15.009Z,144.73
2018-07-09T20:28:42.437Z,78.00
2018-07-09T20:31:09.871Z,112.07
2018-07-09T20:33:37.261Z,137.50
2018-07-09T20:36:04.994Z,134.80
2018-07-09T20:38:32.379Z,179.77
2018-07-09T20:41:00.065Z,266.13
2018-07-09T20:43:27.480Z,308.17
2018-07-09T20:45:54.919Z,259.57
2018-07-09T20:48:22.299Z,167.57
2018-07-09T20:50:49.696Z,158.13
2018-07-09T20:53:17.169Z,181.60
2018-07-09T20:55:44.588Z,256.83
2018-07-09T20:58:11.980Z,265.87
2018-07-09T21:00:39.402Z,191.20
2018-07-09T21:03:07.123Z,166.03
2018-07-09T21:05:34.801Z,154.93
2018-07-09T21:08:02.213Z,211.67
2018-07-09T21:10:29.674Z,140.80
2018-07-09T21:12:58.264Z,118.43
2018-07-09T21:15:26.916Z,77.17
2018-07-09T21:17:54.728Z,114.83
2018-07-09T21:20:22.179Z,125.47
2018-07-09T21:22:49.863Z,173.47
2018-07-09T21:25:17.959Z,182.83
2018-07-09T21:27:45.831Z,174.63
2018-07-09T21:30:13.219Z,157.70
2018-07-09T21:32:40.676Z,119.37
2018-07-09T21:35:08.134Z,154.53
2018-07-09T21:37:35.735Z,137.40
2018-07-09T21:40:03.085Z,140.60
2018-07-09T21:42:31.261Z,102.70
2018-07-09T21:44:58.688Z,134.90
2018-07-09T21:47:26.071Z,140.77
2018-07-09T21:49:53.476Z,148.47
2018-07-09T21:52:20.902Z,173.83
2018-07-09T21:54:48.315Z,104.80
2018-07-09T21:57:15.736Z,82.40
2018-07-09T21:59:43.582Z,80.40
2018-07-09T22:02:11.060Z,66.93
2018-07-09T22:04:40.597Z,63.33
2018-07-09T22:07:08.078Z,71.53
2018-07-09T22:09:35.798Z,75.43
2018-07-09T22:12:03.281Z,74.03
2018-07-09T22:14:31.148Z,75.23
2018-07-09T22:16:58.674Z,87.10
2018-07-09T22:19:26.834Z,87.03
2018-07-09T22:21:55.238Z,85.43
2018-07-09T22:24:23.121Z,87.90
2018-07-09T22:26:55.170Z,82.40
2018-07-09T22:29:22.913Z,105.43
2018-07-09T22:31:51.811Z,98.13
2018-07-09T22:34:20.645Z,109.17
2018-07-09T22:36:49.248Z,106.00
2018-07-09T22:39:17.824Z,126.37
2018-07-09T22:41:46.422Z,114.73
2018-07-09T22:44:21.489Z,111.17
2018-07-09T22:46:51.016Z,104.37
2018-07-09T22:49:20.112Z,108.80
2018-07-09T22:51:48.655Z,103.93
2018-07-09T22:54:18.720Z,91.53
2018-07-09T22:56:47.858Z,100.80
2018-07-09T22:59:16.439Z,98.03
2018-07-09T23:01:45.844Z,105.80
2018-07-09T23:04:14.824Z,109.87
2018-07-09T23:06:43.743Z,106.07
2018-07-09T23:11:26.308Z,94.70
2018-07-09T23:15:32.698Z,108.90
2018-07-09T23:18:12.455Z,136.50
2018-07-09T23:21:01.072Z,109.87
2018-07-09T23:23:29.244Z,93.33
2018-07-09T23:25:57.097Z,66.80
2018-07-09T23:28:25.104Z,66.33
2018-07-09T23:30:52.615Z,76.03
2018-07-09T23:33:20.029Z,73.73
2018-07-09T23:35:47.820Z,60.67
2018-07-09T23:38:15.815Z,62.27
2018-07-09T23:40:43.239Z,58.37
2018-07-09T23:43:11.135Z,58.93
2018-07-09T23:45:38.895Z,65.40
2018-07-09T23:48:06.673Z,63.40
2018-07-09T23:50:34.168Z,59.90
2018-07-09T23:53:01.967Z,62.67
2018-07-09T23:55:33.171Z,62.17
2018-07-09T23:58:25.081Z,79.63
